Norfolk, Virginia
Traffic Map
Current Weather Conditions
Norfolk, Virginia
Clear
Clear
71°
Feels Like: 71°
Wind Chill: 71° Ceiling: Unl
Heat Index: 71° Visibility: 10mi
Dew Point: 63° Wind: 12mph
Humidity: 75% Direction: 30° (NNE)
Pressure: 29.99in Gusts: 0mph
Raw Report DataKORF 012151Z 03010KT 10SM CLR 22/17 A2999 RMK AO2 SLP156 T02170172
Traffic Incident Summary
Active as of:
Severity:
Category:
InformationThere was an issue retrieving the traffic information for this location. Please try a different location or try again shortly.
Advertisements
Track Severe Weather on mobile